Terminal Aerodrome Forecast
Issued by NWS

Home | Current Version | Previous Version | Text Only | Print | Product List | Glossary On
Versions: 1 2 3 4 5 6 7 8 9 10 11 12 13 14 15 16 17 18 19 20 21 22 23 24 25 26 27
000
FTUS43 KDVN 010000 AAA
TAFCID
TAF AMD
KCID 010051Z 0101/0124 13007KT 4SM -SN BR OVC035
     FM010300 15006KT P6SM -SN VCSH FEW020 OVC040
     FM010600 18006KT 4SM BR OVC022
     FM011300 22008KT P6SM BKN030
     FM011900 27012KT P6SM SCT080 BKN250=

USA.gov is the U.S. government's official web portal to all federal, state and local government web resources and services.